createdAt,value
2019-03-28T05:13:10.373Z,12.80
2019-03-28T05:14:11.304Z,25.10
2019-03-28T05:15:10.334Z,23.60
2019-03-28T05:16:10.327Z,22.80
2019-03-28T05:17:10.316Z,23.30
2019-03-28T05:18:10.301Z,23.90
2019-03-28T05:19:10.308Z,25.10
2019-03-28T05:20:13.048Z,23.90
2019-03-28T05:21:10.274Z,25.30
2019-03-28T05:22:10.272Z,23.60
2019-03-28T05:23:10.255Z,29.10
2019-03-28T05:24:10.281Z,42.70
2019-03-28T05:25:10.235Z,27.60
2019-03-28T05:26:18.772Z,25.90
2019-03-28T05:27:10.206Z,26.60
2019-03-28T05:28:10.201Z,32.60
2019-03-28T05:29:10.185Z,25.50
2019-03-28T05:30:10.196Z,28.70
2019-03-28T05:31:10.165Z,26.20
2019-03-28T05:32:10.154Z,24.60
2019-03-28T05:33:10.148Z,24.30
2019-03-28T05:34:10.147Z,27.30
2019-03-28T05:35:10.145Z,22.40
2019-03-28T05:36:10.125Z,24.50
2019-03-28T05:37:10.464Z,23.50
2019-03-28T05:38:10.103Z,26.10
2019-03-28T05:39:10.081Z,29.20
2019-03-28T05:40:10.992Z,24.40
2019-03-28T05:41:10.065Z,23.60
2019-03-28T05:42:10.046Z,24.90
2019-03-28T05:43:10.061Z,24.60
2019-03-28T05:44:10.033Z,26.40
2019-03-28T05:45:10.045Z,25.90
2019-03-28T05:46:10.010Z,24.20
2019-03-28T05:47:09.998Z,23.00
2019-03-28T05:48:09.990Z,24.70
2019-03-28T05:49:09.974Z,26.30
2019-03-28T05:50:10.005Z,30.10
2019-03-28T05:51:09.964Z,25.70
2019-03-28T05:52:11.752Z,27.30
2019-03-28T05:53:09.936Z,28.30
2019-03-28T05:54:09.926Z,24.70
2019-03-28T05:55:09.925Z,28.10
2019-03-28T05:56:09.903Z,25.80
2019-03-28T05:57:09.899Z,27.30
2019-03-28T05:58:09.885Z,28.50
2019-03-28T05:59:11.306Z,26.60
2019-03-28T06:00:09.875Z,24.10
2019-03-28T06:01:09.859Z,26.60
2019-03-28T06:02:09.836Z,27.60
2019-03-28T06:03:09.834Z,31.90
2019-03-28T06:04:09.817Z,22.50
2019-03-28T06:05:09.825Z,26.80
2019-03-28T06:06:09.809Z,28.90
2019-03-28T06:07:10.360Z,28.60
2019-03-28T06:08:09.775Z,25.30
2019-03-28T06:09:09.768Z,27.00
2019-03-28T06:10:10.376Z,25.60
2019-03-28T06:11:09.744Z,25.20
2019-03-28T06:12:09.748Z,25.60
2019-03-28T06:13:09.721Z,24.50
2019-03-28T06:14:09.711Z,24.80
2019-03-28T06:15:09.731Z,24.80
2019-03-28T06:16:09.691Z,29.30
2019-03-28T06:17:09.680Z,25.30
2019-03-28T06:18:09.671Z,28.50
2019-03-28T06:19:09.663Z,27.20
2019-03-28T06:20:09.671Z,25.80
2019-03-28T06:21:09.640Z,25.60
2019-03-28T06:22:09.625Z,25.30
2019-03-28T06:23:09.620Z,22.80
2019-03-28T06:24:09.608Z,26.40
2019-03-28T06:25:09.620Z,27.90
2019-03-28T06:26:09.587Z,27.20
2019-03-28T06:27:09.573Z,26.50
2019-03-28T06:28:09.577Z,29.10
2019-03-28T06:29:09.557Z,26.20
2019-03-28T06:30:09.563Z,26.60
2019-03-28T06:31:10.619Z,29.30
2019-03-28T06:32:09.520Z,24.90
2019-03-28T06:33:09.511Z,26.90
2019-03-28T06:34:09.505Z,26.80
2019-03-28T06:35:09.514Z,29.20
2019-03-28T06:36:09.498Z,27.80
2019-03-28T06:37:09.474Z,25.70
2019-03-28T06:38:09.459Z,27.40
2019-03-28T06:39:09.448Z,26.60
2019-03-28T06:40:09.455Z,28.30
2019-03-28T06:41:09.439Z,28.00
2019-03-28T06:42:09.422Z,29.10
2019-03-28T06:43:09.432Z,30.10
2019-03-28T06:44:09.395Z,27.40
2019-03-28T06:45:09.402Z,26.90
2019-03-28T06:46:09.377Z,27.30
2019-03-28T06:47:09.367Z,29.60
2019-03-28T06:48:09.365Z,26.10
2019-03-28T06:49:09.360Z,26.30
2019-03-28T06:50:09.375Z,28.10
2019-03-28T06:51:09.322Z,27.00
2019-03-28T06:52:09.379Z,28.30
2019-03-28T06:53:09.303Z,26.50
2019-03-28T06:54:09.316Z,26.10
2019-03-28T06:55:09.296Z,27.10
2019-03-28T06:56:09.318Z,27.30
2019-03-28T06:57:09.286Z,25.30
2019-03-28T06:58:09.250Z,28.30
2019-03-28T06:59:09.237Z,26.40
2019-03-28T07:00:09.248Z,27.10
2019-03-28T07:01:09.221Z,26.20
2019-03-28T07:02:09.209Z,27.70
2019-03-28T07:03:09.195Z,23.80
2019-03-28T07:04:09.185Z,26.20
2019-03-28T07:05:09.229Z,25.40
2019-03-28T07:06:09.166Z,25.70
2019-03-28T07:07:09.206Z,27.30
2019-03-28T07:08:09.148Z,28.00
2019-03-28T07:09:09.143Z,24.20
2019-03-28T07:10:09.144Z,32.10
2019-03-28T07:11:09.112Z,34.20
2019-03-28T07:12:09.106Z,33.40
2019-03-28T07:13:09.129Z,31.00
2019-03-28T07:14:09.083Z,29.90
2019-03-28T07:15:09.102Z,24.80
2019-03-28T07:16:09.076Z,27.10
2019-03-28T07:17:09.052Z,26.90
2019-03-28T07:18:09.048Z,29.20
2019-03-28T07:19:09.035Z,27.00
2019-03-28T07:20:09.471Z,24.40
2019-03-28T07:21:09.015Z,26.00
2019-03-28T07:22:09.014Z,26.10
2019-03-28T07:23:08.990Z,25.30
2019-03-28T07:24:08.984Z,27.20
2019-03-28T07:25:09.019Z,27.30
2019-03-28T07:26:08.962Z,26.50
2019-03-28T07:27:08.950Z,25.30
2019-03-28T07:28:08.940Z,25.30
2019-03-28T07:29:08.929Z,25.90
2019-03-28T07:30:08.940Z,29.60
2019-03-28T07:31:08.914Z,26.40
2019-03-28T07:32:08.901Z,28.00
2019-03-28T07:33:08.893Z,36.30
2019-03-28T07:34:08.880Z,32.60
2019-03-28T07:35:08.891Z,33.70
2019-03-28T07:36:08.865Z,37.70
2019-03-28T07:37:08.886Z,29.10
2019-03-28T07:38:08.841Z,35.20
2019-03-28T07:39:08.828Z,34.80
2019-03-28T07:40:08.844Z,34.30
2019-03-28T07:41:08.811Z,31.60
2019-03-28T07:42:08.805Z,32.70
2019-03-28T07:43:08.798Z,30.30
2019-03-28T07:44:08.778Z,28.90
2019-03-28T07:45:08.782Z,32.30
2019-03-28T07:46:08.762Z,31.00
2019-03-28T07:47:08.771Z,31.60
2019-03-28T07:48:08.745Z,32.10
2019-03-28T07:49:08.726Z,30.40
2019-03-28T07:50:08.744Z,33.60
2019-03-28T07:51:08.704Z,31.80
2019-03-28T07:52:08.703Z,30.50
2019-03-28T07:53:08.685Z,31.30
2019-03-28T07:54:08.674Z,30.90
2019-03-28T07:55:08.685Z,28.70
2019-03-28T07:56:08.666Z,27.30
2019-03-28T07:57:08.645Z,32.90
2019-03-28T07:58:09.264Z,27.80
2019-03-28T07:59:08.621Z,28.70
2019-03-28T08:00:08.652Z,31.50
2019-03-28T08:01:08.641Z,27.50
2019-03-28T08:02:08.609Z,27.30
2019-03-28T08:03:08.582Z,27.50
2019-03-28T08:04:08.571Z,24.80
2019-03-28T08:05:08.593Z,27.80
2019-03-28T08:06:08.553Z,32.40
2019-03-28T08:07:08.785Z,28.40
2019-03-28T08:08:08.534Z,26.60
2019-03-28T08:09:08.521Z,29.40
2019-03-28T08:10:08.599Z,30.90
2019-03-28T08:11:08.648Z,25.10
2019-03-28T08:12:21.834Z,26.40
2019-03-28T08:13:09.482Z,32.80
2019-03-28T08:14:08.489Z,29.20
2019-03-28T08:15:08.486Z,29.70
2019-03-28T08:16:08.475Z,27.20
2019-03-28T08:17:08.443Z,30.90
2019-03-28T08:18:08.461Z,35.40
2019-03-28T08:19:08.441Z,28.30
2019-03-28T08:20:08.432Z,34.40
2019-03-28T08:21:08.397Z,30.50
2019-03-28T08:22:08.427Z,27.10
2019-03-28T08:23:08.376Z,35.30
2019-03-28T08:24:08.369Z,30.40
2019-03-28T08:25:11.377Z,29.20
2019-03-28T08:26:08.382Z,28.40
2019-03-28T08:27:08.342Z,27.20
2019-03-28T08:28:08.334Z,28.00
2019-03-28T08:29:08.322Z,31.80
2019-03-28T08:30:18.244Z,34.00
2019-03-28T08:31:09.325Z,34.00
2019-03-28T08:32:08.915Z,38.00
2019-03-28T08:33:08.280Z,32.70
2019-03-28T08:34:08.269Z,35.40
2019-03-28T08:35:08.346Z,34.10
2019-03-28T08:36:08.245Z,32.30
2019-03-28T08:37:08.231Z,32.20
2019-03-28T08:38:10.011Z,27.10
2019-03-28T08:39:08.214Z,31.70
2019-03-28T08:40:08.216Z,30.20
2019-03-28T08:41:08.188Z,30.20
2019-03-28T08:42:08.180Z,30.50
2019-03-28T08:43:08.168Z,37.90
2019-03-28T08:44:08.175Z,27.50
2019-03-28T08:45:08.164Z,28.10
2019-03-28T08:46:08.909Z,28.90
2019-03-28T08:47:08.136Z,28.60
2019-03-28T08:48:08.120Z,33.40
2019-03-28T08:49:08.106Z,27.60
2019-03-28T08:50:08.138Z,27.10
2019-03-28T08:51:08.089Z,31.50
2019-03-28T08:52:11.516Z,30.30
2019-03-28T08:53:08.089Z,28.20
2019-03-28T08:54:08.154Z,28.80
2019-03-28T08:55:09.979Z,27.10
2019-03-28T08:56:08.036Z,27.40
2019-03-28T08:57:08.040Z,30.50
2019-03-28T08:58:08.037Z,31.90
2019-03-28T08:59:08.016Z,28.20
2019-03-28T09:00:08.036Z,28.10
2019-03-28T09:01:08.138Z,30.00
2019-03-28T09:02:07.982Z,26.00
2019-03-28T09:03:08.003Z,31.50
2019-03-28T09:04:07.964Z,33.80
2019-03-28T09:05:07.951Z,37.90
2019-03-28T09:06:07.947Z,43.90
2019-03-28T09:07:07.920Z,27.80
2019-03-28T09:08:07.911Z,30.70
2019-03-28T09:09:07.998Z,28.70
2019-03-28T09:10:07.893Z,29.40
2019-03-28T09:11:07.891Z,31.60
2019-03-28T09:12:07.955Z,34.90
2019-03-28T09:13:07.853Z,27.40
2019-03-28T09:14:07.843Z,31.60
2019-03-28T09:15:07.839Z,32.30
2019-03-28T09:16:08.213Z,34.30
2019-03-28T09:17:07.807Z,30.20
2019-03-28T09:18:07.799Z,31.60
2019-03-28T09:19:07.790Z,30.50
2019-03-28T09:20:07.776Z,31.60
2019-03-28T09:21:07.784Z,30.30
2019-03-28T09:22:07.764Z,33.20
2019-03-28T09:23:07.755Z,32.00
2019-03-28T09:24:07.742Z,33.00
2019-03-28T09:25:07.724Z,30.20
2019-03-28T09:26:07.729Z,34.90
2019-03-28T09:27:07.702Z,40.40
2019-03-28T09:28:07.698Z,39.90
2019-03-28T09:29:07.681Z,39.50
2019-03-28T09:30:07.672Z,33.20
2019-03-28T09:31:19.303Z,31.50
2019-03-28T09:32:08.660Z,30.60
2019-03-28T09:33:07.642Z,32.50
2019-03-28T09:34:07.634Z,33.70
2019-03-28T09:35:07.618Z,34.60
2019-03-28T09:36:07.625Z,33.60
2019-03-28T09:37:07.596Z,33.20
2019-03-28T09:38:07.590Z,36.70
2019-03-28T09:39:07.581Z,34.90
2019-03-28T09:40:07.573Z,31.40
2019-03-28T09:41:07.595Z,34.90
2019-03-28T09:42:07.550Z,37.00
2019-03-28T09:43:07.533Z,37.30
2019-03-28T09:44:07.523Z,34.70
2019-03-28T09:45:07.512Z,36.90
2019-03-28T09:46:07.518Z,37.00
2019-03-28T09:47:07.521Z,36.00
2019-03-28T09:48:07.506Z,34.00
2019-03-28T09:49:07.470Z,34.30
2019-03-28T09:50:07.456Z,38.70
2019-03-28T09:51:07.499Z,33.70
2019-03-28T09:52:07.435Z,32.50
2019-03-28T09:53:07.427Z,45.20
2019-03-28T09:54:07.414Z,34.10
2019-03-28T09:55:07.407Z,35.60
2019-03-28T09:56:07.507Z,32.90
2019-03-28T09:57:07.384Z,37.90
2019-03-28T09:58:07.372Z,35.60
2019-03-28T09:59:07.361Z,37.90
2019-03-28T10:00:07.349Z,34.10
2019-03-28T10:01:07.362Z,32.60
2019-03-28T10:02:07.333Z,34.90
2019-03-28T10:03:07.324Z,32.70
2019-03-28T10:04:07.335Z,35.00
2019-03-28T10:05:07.413Z,33.40
2019-03-28T10:06:07.321Z,35.80
2019-03-28T10:07:07.276Z,34.70
2019-03-28T10:08:07.263Z,34.00
2019-03-28T10:09:07.279Z,34.80
2019-03-28T10:10:09.184Z,37.90
2019-03-28T10:11:07.304Z,34.90
2019-03-28T10:12:07.221Z,34.70
2019-03-28T10:13:07.211Z,36.80
2019-03-28T10:14:07.212Z,35.20
2019-03-28T10:15:07.190Z,36.40
2019-03-28T10:16:07.197Z,33.00
2019-03-28T10:17:07.197Z,35.40
2019-03-28T10:18:07.183Z,38.90
2019-03-28T10:19:07.177Z,32.10
2019-03-28T10:20:07.154Z,33.20
2019-03-28T10:21:07.139Z,35.90
2019-03-28T10:22:07.141Z,33.20
2019-03-28T10:23:07.132Z,36.10
2019-03-28T10:24:07.092Z,35.00
2019-03-28T10:25:07.079Z,33.20
2019-03-28T10:26:07.086Z,32.10
2019-03-28T10:27:07.059Z,36.30
2019-03-28T10:28:07.049Z,33.80
2019-03-28T10:29:07.063Z,38.70
2019-03-28T10:30:07.057Z,40.80
2019-03-28T10:31:16.282Z,34.00
2019-03-28T10:32:08.036Z,37.40
2019-03-28T10:33:06.995Z,40.60
2019-03-28T10:34:06.984Z,32.90
2019-03-28T10:35:07.317Z,38.70
2019-03-28T10:36:06.977Z,39.80
2019-03-28T10:37:06.953Z,37.40
2019-03-28T10:38:06.944Z,37.80
2019-03-28T10:39:06.934Z,37.70
2019-03-28T10:40:06.917Z,37.20
2019-03-28T10:41:06.923Z,31.20
2019-03-28T10:42:06.896Z,35.20
2019-03-28T10:43:06.890Z,35.80
2019-03-28T10:44:06.887Z,38.30
2019-03-28T10:45:06.873Z,35.70
2019-03-28T10:46:06.871Z,37.40
2019-03-28T10:47:06.843Z,38.00
2019-03-28T10:48:06.830Z,42.50
2019-03-28T10:49:06.819Z,36.90
2019-03-28T10:50:06.833Z,40.50
2019-03-28T10:51:06.812Z,33.20
2019-03-28T10:52:06.795Z,34.40
2019-03-28T10:53:06.774Z,34.20
2019-03-28T10:54:19.226Z,31.20
2019-03-28T10:55:07.757Z,39.10
2019-03-28T10:56:20.468Z,39.20
2019-03-28T10:57:13.664Z,34.60
2019-03-28T10:58:18.334Z,35.70
2019-03-28T10:59:07.706Z,34.30
2019-03-28T11:00:06.699Z,37.60
2019-03-28T11:01:06.704Z,31.10
2019-03-28T11:02:06.674Z,31.30
2019-03-28T11:03:06.694Z,32.70
2019-03-28T11:04:06.655Z,30.10
2019-03-28T11:05:06.654Z,33.00
2019-03-28T11:06:06.796Z,31.80
2019-03-28T11:07:06.618Z,34.30
2019-03-28T11:08:06.619Z,39.00
2019-03-28T11:09:06.599Z,35.00
2019-03-28T11:10:06.601Z,35.60
2019-03-28T11:11:06.601Z,35.40
2019-03-28T11:12:06.567Z,31.60
2019-03-28T11:13:09.376Z,33.00
2019-03-28T11:14:06.546Z,31.20
2019-03-28T11:15:06.542Z,30.00
2019-03-28T11:16:06.557Z,31.00
2019-03-28T11:17:06.513Z,30.00
2019-03-28T11:18:06.501Z,30.00
2019-03-28T11:19:06.491Z,30.00
2019-03-28T11:20:06.487Z,28.20
2019-03-28T11:21:06.496Z,34.20
2019-03-28T11:22:06.480Z,30.30
2019-03-28T11:23:07.261Z,31.60
2019-03-28T11:24:06.435Z,31.80
2019-03-28T11:25:06.431Z,33.60
2019-03-28T11:26:06.436Z,34.40
2019-03-28T11:27:06.437Z,31.60
2019-03-28T11:28:06.438Z,31.90
2019-03-28T11:29:06.385Z,33.70
2019-03-28T11:30:06.370Z,29.50
2019-03-28T11:31:06.384Z,29.50
2019-03-28T11:32:06.346Z,28.20
2019-03-28T11:33:06.696Z,29.30
2019-03-28T11:34:06.343Z,28.80
2019-03-28T11:35:06.763Z,29.10
2019-03-28T11:36:06.327Z,24.20
2019-03-28T11:37:09.733Z,19.50
2019-03-28T11:38:09.546Z,22.90
2019-03-28T11:39:06.275Z,20.20
2019-03-28T11:40:09.026Z,20.10
2019-03-28T11:41:06.277Z,19.20
2019-03-28T11:42:06.239Z,19.10
2019-03-28T11:43:06.236Z,17.90
2019-03-28T11:44:06.226Z,20.80
2019-03-28T11:45:09.067Z,19.30
2019-03-28T11:46:06.221Z,20.30
2019-03-28T11:47:06.191Z,18.50
2019-03-28T11:48:06.185Z,17.30
2019-03-28T11:49:06.169Z,22.20
2019-03-28T11:50:06.174Z,18.40
2019-03-28T11:51:06.174Z,18.60
2019-03-28T11:52:06.146Z,18.70
2019-03-28T11:53:06.133Z,21.00
2019-03-28T11:54:06.113Z,18.20
2019-03-28T11:55:06.106Z,17.20
2019-03-28T11:56:06.118Z,17.30
2019-03-28T11:57:06.084Z,16.00
2019-03-28T11:58:06.090Z,14.70
2019-03-28T11:59:06.369Z,16.40
2019-03-28T12:00:06.052Z,17.20
2019-03-28T12:01:06.064Z,14.70
2019-03-28T12:02:19.145Z,14.20
2019-03-28T12:03:07.018Z,16.90
2019-03-28T12:04:06.013Z,16.20
2019-03-28T12:05:06.006Z,15.80
2019-03-28T12:06:06.003Z,16.80
2019-03-28T12:07:05.979Z,16.60
2019-03-28T12:08:05.970Z,15.40
2019-03-28T12:09:05.961Z,17.10
2019-03-28T12:10:05.949Z,16.80
2019-03-28T12:11:05.969Z,15.90
2019-03-28T12:12:05.929Z,17.60
2019-03-28T12:13:05.939Z,15.10
2019-03-28T12:14:05.908Z,16.70
2019-03-28T12:15:05.898Z,13.20
2019-03-28T12:16:05.897Z,16.00
2019-03-28T12:17:05.873Z,15.90
2019-03-28T12:18:05.863Z,17.70
2019-03-28T12:19:05.864Z,18.30
2019-03-28T12:20:05.849Z,16.70
2019-03-28T12:21:05.852Z,16.70
2019-03-28T12:22:05.896Z,16.60
2019-03-28T12:23:05.811Z,21.00
2019-03-28T12:24:05.799Z,32.80
2019-03-28T12:25:05.876Z,29.40
2019-03-28T12:26:05.831Z,19.40
2019-03-28T12:27:05.774Z,17.10
2019-03-28T12:28:05.763Z,19.70
2019-03-28T12:29:06.025Z,18.00
2019-03-28T12:30:05.737Z,21.10
2019-03-28T12:31:05.742Z,21.10
2019-03-28T12:32:13.831Z,23.10
2019-03-28T12:33:06.714Z,18.40
2019-03-28T12:34:05.734Z,20.40
2019-03-28T12:35:05.695Z,19.50
2019-03-28T12:36:05.691Z,17.70
2019-03-28T12:37:05.671Z,19.10
2019-03-28T12:38:05.652Z,18.40
2019-03-28T12:39:05.643Z,21.10
2019-03-28T12:40:05.638Z,19.90
2019-03-28T12:41:05.645Z,20.20
2019-03-28T12:42:05.613Z,20.70
2019-03-28T12:43:05.604Z,22.20
2019-03-28T12:44:05.597Z,19.00
2019-03-28T12:45:05.582Z,20.80
2019-03-28T12:46:05.586Z,21.20
2019-03-28T12:47:05.582Z,21.00
2019-03-28T12:48:05.552Z,20.40
2019-03-28T12:49:05.536Z,22.40
2019-03-28T12:50:05.526Z,21.70
2019-03-28T12:51:05.534Z,19.60
2019-03-28T12:52:05.514Z,19.90
2019-03-28T12:53:05.510Z,21.50
2019-03-28T12:54:05.485Z,20.90
2019-03-28T12:55:05.479Z,18.90
2019-03-28T12:56:05.481Z,20.20
2019-03-28T12:57:05.471Z,21.40
2019-03-28T12:58:05.482Z,21.90
2019-03-28T12:59:05.436Z,20.60
2019-03-28T13:00:05.457Z,20.50
2019-03-28T13:01:05.423Z,21.60
2019-03-28T13:02:05.404Z,21.40
2019-03-28T13:03:05.403Z,23.30
2019-03-28T13:04:05.380Z,22.60
2019-03-28T13:05:05.373Z,22.40
2019-03-28T13:06:05.381Z,22.00
2019-03-28T13:07:05.350Z,18.70
2019-03-28T13:08:05.345Z,21.10
2019-03-28T13:09:05.325Z,19.60
2019-03-28T13:10:05.332Z,20.10
2019-03-28T13:11:05.325Z,20.10
2019-03-28T13:12:05.292Z,20.00
2019-03-28T13:13:05.286Z,18.30
2019-03-28T13:14:05.282Z,19.10
2019-03-28T13:15:05.260Z,19.20
2019-03-28T13:16:05.564Z,20.60
2019-03-28T13:17:05.244Z,18.60
2019-03-28T13:18:05.228Z,21.50
2019-03-28T13:19:05.222Z,17.80
2019-03-28T13:20:05.206Z,21.20
2019-03-28T13:21:13.512Z,18.90
2019-03-28T13:22:06.216Z,19.90
2019-03-28T13:23:05.190Z,19.20
2019-03-28T13:24:07.700Z,18.90
2019-03-28T13:25:05.156Z,20.70
2019-03-28T13:26:05.149Z,18.80
2019-03-28T13:27:05.165Z,19.10
2019-03-28T13:28:05.124Z,18.50
2019-03-28T13:29:05.265Z,19.70
2019-03-28T13:30:05.105Z,17.00
2019-03-28T13:31:05.091Z,16.40
2019-03-28T13:32:05.096Z,18.50
2019-03-28T13:33:05.083Z,20.80
2019-03-28T13:34:05.062Z,17.90
2019-03-28T13:35:05.056Z,21.90
2019-03-28T13:36:05.038Z,20.60
2019-03-28T13:37:05.039Z,19.20
2019-03-28T13:38:05.015Z,19.80
2019-03-28T13:39:05.007Z,19.40
2019-03-28T13:40:05.000Z,21.50
2019-03-28T13:41:05.014Z,20.40
2019-03-28T13:42:04.996Z,22.60
2019-03-28T13:43:05.038Z,18.90
2019-03-28T13:44:04.947Z,21.10
2019-03-28T13:45:04.936Z,20.10
2019-03-28T13:46:04.936Z,19.90
2019-03-28T13:47:04.936Z,18.90
2019-03-28T13:48:04.938Z,24.80
2019-03-28T13:49:04.894Z,22.80
2019-03-28T13:50:04.897Z,22.70
2019-03-28T13:51:04.874Z,20.50
2019-03-28T13:52:04.879Z,22.30
2019-03-28T13:53:04.895Z,23.90
2019-03-28T13:54:04.852Z,21.00
2019-03-28T13:55:04.828Z,21.80
2019-03-28T13:56:04.837Z,21.80
2019-03-28T13:57:04.826Z,20.50
2019-03-28T13:58:04.796Z,22.10
2019-03-28T13:59:05.757Z,19.60
2019-03-28T14:00:04.774Z,22.20
2019-03-28T14:01:04.764Z,22.90
2019-03-28T14:02:06.920Z,23.50
2019-03-28T14:03:04.739Z,21.60
2019-03-28T14:04:04.728Z,22.00
2019-03-28T14:05:04.733Z,22.70
2019-03-28T14:06:04.711Z,23.00
2019-03-28T14:07:04.717Z,22.50
2019-03-28T14:08:04.696Z,24.60
2019-03-28T14:09:04.683Z,25.10
2019-03-28T14:10:04.665Z,21.80
2019-03-28T14:11:04.671Z,23.30
2019-03-28T14:12:04.670Z,21.00
2019-03-28T14:13:04.634Z,22.40
2019-03-28T14:14:04.629Z,24.00
2019-03-28T14:15:04.616Z,19.10
2019-03-28T14:16:04.602Z,22.90
2019-03-28T14:17:04.606Z,22.50
2019-03-28T14:18:04.589Z,23.80
2019-03-28T14:19:04.576Z,22.50
2019-03-28T14:20:04.567Z,22.70
2019-03-28T14:21:04.547Z,21.60
2019-03-28T14:22:04.555Z,24.80
2019-03-28T14:23:04.534Z,24.90
2019-03-28T14:24:04.516Z,24.30
2019-03-28T14:25:04.517Z,25.50
2019-03-28T14:26:04.502Z,26.50
2019-03-28T14:27:04.510Z,24.40
2019-03-28T14:28:04.479Z,24.50
2019-03-28T14:29:06.915Z,22.40
2019-03-28T14:30:04.457Z,23.40
2019-03-28T14:31:04.452Z,24.60
2019-03-28T14:32:04.460Z,24.90
2019-03-28T14:33:11.203Z,25.70
2019-03-28T14:34:05.414Z,22.80
2019-03-28T14:35:04.405Z,24.10
2019-03-28T14:36:04.389Z,21.30
2019-03-28T14:37:04.407Z,25.60
2019-03-28T14:38:04.377Z,25.50
2019-03-28T14:39:04.359Z,24.30
2019-03-28T14:40:04.353Z,25.90
2019-03-28T14:41:04.341Z,26.90
2019-03-28T14:42:04.348Z,28.00
2019-03-28T14:43:04.338Z,24.40
2019-03-28T14:44:04.305Z,25.60
2019-03-28T14:45:04.296Z,24.60
2019-03-28T14:46:04.288Z,27.50
2019-03-28T14:47:04.290Z,24.70
2019-03-28T14:48:06.837Z,25.70
2019-03-28T14:49:04.411Z,25.70
2019-03-28T14:50:04.283Z,25.40
2019-03-28T14:51:04.229Z,27.10
2019-03-28T14:52:04.234Z,25.70
2019-03-28T14:53:04.217Z,28.40
2019-03-28T14:54:04.195Z,28.40
2019-03-28T14:55:04.190Z,29.60
2019-03-28T14:56:04.181Z,27.20
2019-03-28T14:57:04.185Z,26.30
2019-03-28T14:58:04.187Z,29.20
2019-03-28T14:59:04.157Z,29.10
2019-03-28T15:00:04.135Z,28.40
2019-03-28T15:01:04.123Z,26.80
2019-03-28T15:02:04.130Z,30.00
2019-03-28T15:03:04.100Z,27.20
2019-03-28T15:04:04.091Z,29.60
2019-03-28T15:05:04.083Z,28.20
2019-03-28T15:06:04.079Z,29.00
2019-03-28T15:07:07.183Z,30.60
2019-03-28T15:08:04.055Z,30.20
2019-03-28T15:09:04.037Z,27.20
2019-03-28T15:10:04.027Z,26.70
2019-03-28T15:11:04.019Z,26.80
2019-03-28T15:12:04.036Z,28.30
2019-03-28T15:13:03.991Z,26.20
2019-03-28T15:14:03.986Z,25.90
2019-03-28T15:15:03.974Z,30.20
2019-03-28T15:16:03.965Z,32.00
2019-03-28T15:17:04.077Z,27.50
2019-03-28T15:18:04.125Z,28.80
2019-03-28T15:19:03.926Z,30.30
2019-03-28T15:20:03.919Z,31.20
2019-03-28T15:21:03.908Z,29.00
2019-03-28T15:22:03.926Z,28.60
2019-03-28T15:23:03.889Z,28.40
2019-03-28T15:24:03.874Z,29.40
2019-03-28T15:25:03.866Z,30.80
2019-03-28T15:26:03.855Z,30.00
2019-03-28T15:27:03.945Z,27.80
2019-03-28T15:28:03.831Z,28.50
2019-03-28T15:29:03.828Z,25.90
2019-03-28T15:30:04.315Z,26.30
2019-03-28T15:31:03.798Z,24.90
2019-03-28T15:32:03.813Z,24.90
2019-03-28T15:33:03.776Z,21.30
2019-03-28T15:34:03.770Z,25.30
2019-03-28T15:35:03.768Z,23.50
2019-03-28T15:36:03.747Z,25.10
2019-03-28T15:37:03.808Z,24.50
2019-03-28T15:38:03.727Z,24.40
2019-03-28T15:39:03.715Z,24.30
2019-03-28T15:40:03.707Z,24.70
2019-03-28T15:41:03.724Z,22.80
2019-03-28T15:42:03.707Z,23.70
2019-03-28T15:43:03.676Z,22.40
2019-03-28T15:44:03.664Z,24.30
2019-03-28T15:45:03.648Z,22.80
2019-03-28T15:46:03.639Z,22.90
2019-03-28T15:47:03.644Z,25.40
2019-03-28T15:48:03.618Z,22.40
2019-03-28T15:49:03.606Z,24.10
2019-03-28T15:50:03.595Z,22.00
2019-03-28T15:51:03.583Z,27.00
2019-03-28T15:52:04.997Z,23.20
2019-03-28T15:53:03.573Z,26.80
2019-03-28T15:54:03.550Z,25.10
2019-03-28T15:55:03.549Z,26.30
2019-03-28T15:56:03.532Z,28.80
2019-03-28T15:57:03.547Z,26.20
2019-03-28T15:58:03.512Z,26.20
2019-03-28T15:59:03.509Z,26.90
2019-03-28T16:00:03.492Z,28.80
2019-03-28T16:01:03.481Z,29.20
2019-03-28T16:02:03.463Z,24.60
2019-03-28T16:03:03.467Z,29.50
2019-03-28T16:04:03.448Z,26.40
2019-03-28T16:05:03.434Z,28.40
2019-03-28T16:06:03.427Z,27.30
2019-03-28T16:07:03.410Z,32.60
2019-03-28T16:08:03.416Z,28.80
2019-03-28T16:09:03.387Z,29.00
2019-03-28T16:10:03.379Z,29.50
2019-03-28T16:11:03.366Z,27.40
2019-03-28T16:12:03.356Z,30.10
2019-03-28T16:13:03.373Z,28.60
2019-03-28T16:14:03.345Z,29.90
2019-03-28T16:15:03.322Z,26.50
2019-03-28T16:16:03.318Z,26.80
2019-03-28T16:17:03.300Z,27.10
2019-03-28T16:18:03.315Z,27.30
2019-03-28T16:19:03.283Z,26.30
2019-03-28T16:20:03.313Z,25.00
2019-03-28T16:21:03.257Z,26.50
2019-03-28T16:22:04.360Z,28.00
2019-03-28T16:23:03.825Z,27.60
2019-03-28T16:24:03.235Z,26.30
2019-03-28T16:25:03.212Z,27.10
2019-03-28T16:26:03.202Z,28.50
2019-03-28T16:27:03.200Z,25.00
2019-03-28T16:28:03.199Z,23.70
2019-03-28T16:29:03.172Z,30.60
2019-03-28T16:30:03.165Z,27.70
2019-03-28T16:31:03.205Z,23.50
2019-03-28T16:32:03.138Z,27.30
2019-03-28T16:33:03.140Z,26.00
2019-03-28T16:34:07.101Z,27.30
2019-03-28T16:35:03.102Z,24.60
2019-03-28T16:36:03.091Z,26.30
2019-03-28T16:37:03.093Z,25.30
2019-03-28T16:38:03.106Z,26.90
2019-03-28T16:39:03.066Z,28.90
2019-03-28T16:40:03.988Z,26.60
2019-03-28T16:41:03.036Z,26.00
2019-03-28T16:42:03.041Z,24.20
2019-03-28T16:43:03.037Z,23.40
2019-03-28T16:44:03.005Z,24.90
2019-03-28T16:45:03.001Z,27.60
2019-03-28T16:46:02.987Z,26.10
2019-03-28T16:47:02.985Z,22.90
2019-03-28T16:48:02.986Z,25.00
2019-03-28T16:49:02.955Z,24.90
2019-03-28T16:50:03.679Z,26.80
2019-03-28T16:51:02.929Z,25.30
2019-03-28T16:52:02.920Z,22.70
2019-03-28T16:53:02.915Z,26.10
2019-03-28T16:54:02.934Z,23.40
2019-03-28T16:55:02.892Z,24.40
2019-03-28T16:56:02.876Z,23.50
2019-03-28T16:57:02.866Z,23.30
2019-03-28T16:58:02.873Z,24.50
2019-03-28T16:59:02.842Z,25.70
2019-03-28T17:00:02.838Z,22.50
2019-03-28T17:01:02.830Z,24.20
2019-03-28T17:02:02.807Z,24.30
2019-03-28T17:03:02.829Z,23.80
2019-03-28T17:04:02.791Z,22.20
2019-03-28T17:05:02.776Z,23.40
2019-03-28T17:06:02.766Z,23.80
2019-03-28T17:07:02.761Z,25.60
2019-03-28T17:08:02.762Z,25.90
2019-03-28T17:09:02.730Z,25.10
2019-03-28T17:10:02.734Z,21.60
2019-03-28T17:11:02.708Z,22.60
2019-03-28T17:12:02.697Z,24.20
2019-03-28T17:13:02.705Z,26.10
2019-03-28T17:14:02.682Z,22.40
2019-03-28T17:15:02.668Z,21.40
2019-03-28T17:16:02.663Z,22.10
2019-03-28T17:17:02.652Z,23.50
2019-03-28T17:18:02.656Z,23.80
2019-03-28T17:19:02.623Z,24.90
2019-03-28T17:20:02.614Z,26.00
2019-03-28T17:21:02.605Z,22.70
2019-03-28T17:22:02.594Z,35.30
2019-03-28T17:23:02.598Z,26.70
2019-03-28T17:24:02.570Z,25.60
2019-03-28T17:25:02.554Z,24.50
2019-03-28T17:26:02.556Z,23.00
2019-03-28T17:27:02.545Z,23.90
2019-03-28T17:28:02.558Z,25.40
2019-03-28T17:29:02.512Z,23.20
2019-03-28T17:30:02.504Z,27.30
2019-03-28T17:31:02.508Z,27.90
2019-03-28T17:32:02.475Z,24.70
2019-03-28T17:33:02.466Z,26.70
2019-03-28T17:34:02.471Z,26.40
2019-03-28T17:35:03.799Z,28.60
2019-03-28T17:36:02.443Z,27.40
2019-03-28T17:37:02.422Z,27.70
2019-03-28T17:38:02.432Z,26.20
2019-03-28T17:39:02.421Z,33.10
2019-03-28T17:40:02.389Z,28.20
2019-03-28T17:41:02.740Z,27.60
2019-03-28T17:42:02.366Z,25.20
2019-03-28T17:43:02.383Z,28.40
2019-03-28T17:44:02.369Z,26.80
2019-03-28T17:45:02.333Z,27.30
2019-03-28T17:46:02.328Z,33.90
2019-03-28T17:47:02.314Z,37.00
2019-03-28T17:48:02.816Z,27.20
2019-03-28T17:49:02.334Z,29.30
2019-03-28T17:50:02.279Z,35.50
2019-03-28T17:51:02.266Z,30.60
2019-03-28T17:52:02.252Z,28.90
2019-03-28T17:53:02.242Z,31.00
2019-03-28T17:54:02.251Z,32.30
2019-03-28T17:55:02.233Z,28.90
2019-03-28T17:56:02.217Z,26.00
2019-03-28T17:57:02.200Z,31.50
2019-03-28T17:58:02.189Z,30.50
2019-03-28T17:59:02.205Z,33.00
2019-03-28T18:00:02.247Z,29.00
2019-03-28T18:01:02.153Z,29.70
2019-03-28T18:02:02.139Z,34.50
2019-03-28T18:03:09.135Z,31.00
2019-03-28T18:04:03.168Z,28.10
2019-03-28T18:05:08.934Z,31.80